sensor_id;sensor_type;location;lat;lon;timestamp;P1;durP1;ratioP1;P2;durP2;ratioP2
61471;SDS011;47337;54.068;12.114;2024-02-14T00:02:17;12.88;;;7.32;;
61471;SDS011;47337;54.068;12.114;2024-02-14T00:04:45;15.32;;;7.88;;
61471;SDS011;47337;54.068;12.114;2024-02-14T00:07:10;11.10;;;7.07;;
61471;SDS011;47337;54.068;12.114;2024-02-14T00:09:36;12.27;;;7.38;;
61471;SDS011;47337;54.068;12.114;2024-02-14T00:12:01;15.25;;;7.38;;
61471;SDS011;47337;54.068;12.114;2024-02-14T00:14:26;16.77;;;7.70;;
61471;SDS011;47337;54.068;12.114;2024-02-14T00:16:52;12.32;;;6.82;;
61471;SDS011;47337;54.068;12.114;2024-02-14T00:19:18;11.20;;;6.78;;
61471;SDS011;47337;54.068;12.114;2024-02-14T00:21:43;16.75;;;7.68;;
61471;SDS011;47337;54.068;12.114;2024-02-14T00:24:08;12.55;;;6.55;;
61471;SDS011;47337;54.068;12.114;2024-02-14T00:26:34;12.65;;;6.45;;
61471;SDS011;47337;54.068;12.114;2024-02-14T00:28:59;12.27;;;6.03;;
61471;SDS011;47337;54.068;12.114;2024-02-14T00:31:24;15.88;;;6.63;;
61471;SDS011;47337;54.068;12.114;2024-02-14T00:33:52;14.05;;;6.22;;
61471;SDS011;47337;54.068;12.114;2024-02-14T00:36:17;10.27;;;6.45;;
61471;SDS011;47337;54.068;12.114;2024-02-14T00:38:43;18.40;;;6.80;;
61471;SDS011;47337;54.068;12.114;2024-02-14T00:41:10;13.65;;;6.40;;
61471;SDS011;47337;54.068;12.114;2024-02-14T00:43:38;10.85;;;6.00;;
61471;SDS011;47337;54.068;12.114;2024-02-14T00:46:03;10.70;;;5.85;;
61471;SDS011;47337;54.068;12.114;2024-02-14T00:48:28;13.68;;;6.82;;
61471;SDS011;47337;54.068;12.114;2024-02-14T00:50:54;10.70;;;5.88;;
61471;SDS011;47337;54.068;12.114;2024-02-14T00:53:19;8.13;;;5.68;;
61471;SDS011;47337;54.068;12.114;2024-02-14T00:55:44;9.77;;;5.50;;
61471;SDS011;47337;54.068;12.114;2024-02-14T00:58:10;11.10;;;6.38;;
61471;SDS011;47337;54.068;12.114;2024-02-14T01:00:35;13.10;;;5.25;;
61471;SDS011;47337;54.068;12.114;2024-02-14T01:03:00;10.50;;;5.38;;
61471;SDS011;47337;54.068;12.114;2024-02-14T01:05:25;8.85;;;5.05;;
61471;SDS011;47337;54.068;12.114;2024-02-14T01:07:51;10.48;;;5.13;;
61471;SDS011;47337;54.068;12.114;2024-02-14T01:10:18;9.40;;;5.22;;
61471;SDS011;47337;54.068;12.114;2024-02-14T01:12:44;9.18;;;5.15;;
61471;SDS011;47337;54.068;12.114;2024-02-14T01:15:09;9.93;;;5.35;;
61471;SDS011;47337;54.068;12.114;2024-02-14T01:17:34;9.23;;;5.22;;
61471;SDS011;47337;54.068;12.114;2024-02-14T01:20:01;10.27;;;4.95;;
61471;SDS011;47337;54.068;12.114;2024-02-14T01:22:26;9.32;;;5.32;;
61471;SDS011;47337;54.068;12.114;2024-02-14T01:24:52;9.35;;;5.25;;
61471;SDS011;47337;54.068;12.114;2024-02-14T01:27:17;10.43;;;5.00;;
61471;SDS011;47337;54.068;12.114;2024-02-14T01:29:43;6.82;;;4.20;;
61471;SDS011;47337;54.068;12.114;2024-02-14T01:32:09;12.80;;;5.65;;
61471;SDS011;47337;54.068;12.114;2024-02-14T01:34:37;9.13;;;5.20;;
61471;SDS011;47337;54.068;12.114;2024-02-14T01:37:02;8.50;;;4.55;;
61471;SDS011;47337;54.068;12.114;2024-02-14T01:39:27;8.02;;;4.40;;
61471;SDS011;47337;54.068;12.114;2024-02-14T01:41:52;11.93;;;4.20;;
61471;SDS011;47337;54.068;12.114;2024-02-14T01:44:18;6.93;;;4.35;;
61471;SDS011;47337;54.068;12.114;2024-02-14T01:46:46;8.88;;;4.30;;
61471;SDS011;47337;54.068;12.114;2024-02-14T01:49:11;10.60;;;3.55;;
61471;SDS011;47337;54.068;12.114;2024-02-14T01:51:39;9.18;;;4.13;;
61471;SDS011;47337;54.068;12.114;2024-02-14T01:54:07;7.85;;;4.05;;
61471;SDS011;47337;54.068;12.114;2024-02-14T01:56:32;6.72;;;4.35;;
61471;SDS011;47337;54.068;12.114;2024-02-14T01:58:58;6.45;;;3.60;;
61471;SDS011;47337;54.068;12.114;2024-02-14T02:01:24;8.48;;;4.38;;
61471;SDS011;47337;54.068;12.114;2024-02-14T02:03:49;7.35;;;4.00;;
61471;SDS011;47337;54.068;12.114;2024-02-14T02:06:14;6.28;;;3.70;;
61471;SDS011;47337;54.068;12.114;2024-02-14T02:08:42;8.27;;;4.00;;
61471;SDS011;47337;54.068;12.114;2024-02-14T02:11:08;7.00;;;4.00;;
61471;SDS011;47337;54.068;12.114;2024-02-14T02:13:33;8.55;;;3.80;;
61471;SDS011;47337;54.068;12.114;2024-02-14T02:15:59;9.82;;;4.25;;
61471;SDS011;47337;54.068;12.114;2024-02-14T02:18:26;6.85;;;3.22;;
61471;SDS011;47337;54.068;12.114;2024-02-14T02:20:51;5.43;;;4.03;;
61471;SDS011;47337;54.068;12.114;2024-02-14T02:23:16;7.80;;;3.80;;
61471;SDS011;47337;54.068;12.114;2024-02-14T02:25:42;7.75;;;3.50;;
61471;SDS011;47337;54.068;12.114;2024-02-14T02:28:07;7.53;;;3.85;;
61471;SDS011;47337;54.068;12.114;2024-02-14T02:30:35;6.05;;;3.67;;
61471;SDS011;47337;54.068;12.114;2024-02-14T02:33:01;7.20;;;3.38;;
61471;SDS011;47337;54.068;12.114;2024-02-14T02:35:27;5.95;;;3.65;;
61471;SDS011;47337;54.068;12.114;2024-02-14T02:37:53;7.10;;;3.35;;
61471;SDS011;47337;54.068;12.114;2024-02-14T02:40:18;5.72;;;3.67;;
61471;SDS011;47337;54.068;12.114;2024-02-14T02:42:46;6.60;;;3.50;;
61471;SDS011;47337;54.068;12.114;2024-02-14T02:45:11;9.35;;;3.90;;
61471;SDS011;47337;54.068;12.114;2024-02-14T02:47:36;9.35;;;3.45;;
61471;SDS011;47337;54.068;12.114;2024-02-14T02:50:02;6.65;;;3.75;;
61471;SDS011;47337;54.068;12.114;2024-02-14T02:52:28;4.53;;;3.40;;
61471;SDS011;47337;54.068;12.114;2024-02-14T02:54:54;4.43;;;3.50;;
61471;SDS011;47337;54.068;12.114;2024-02-14T02:57:19;9.52;;;3.38;;
61471;SDS011;47337;54.068;12.114;2024-02-14T02:59:45;8.18;;;3.72;;
61471;SDS011;47337;54.068;12.114;2024-02-14T03:02:12;7.68;;;3.83;;
61471;SDS011;47337;54.068;12.114;2024-02-14T03:04:38;6.50;;;3.72;;
61471;SDS011;47337;54.068;12.114;2024-02-14T03:07:04;11.00;;;4.00;;
61471;SDS011;47337;54.068;12.114;2024-02-14T03:09:32;6.45;;;3.60;;
61471;SDS011;47337;54.068;12.114;2024-02-14T03:11:57;8.45;;;4.43;;
61471;SDS011;47337;54.068;12.114;2024-02-14T03:14:25;6.28;;;3.20;;
61471;SDS011;47337;54.068;12.114;2024-02-14T03:16:53;7.80;;;3.95;;
61471;SDS011;47337;54.068;12.114;2024-02-14T03:19:21;5.93;;;3.45;;
61471;SDS011;47337;54.068;12.114;2024-02-14T03:21:49;6.07;;;3.42;;
61471;SDS011;47337;54.068;12.114;2024-02-14T03:24:14;9.32;;;3.80;;
61471;SDS011;47337;54.068;12.114;2024-02-14T03:26:40;6.47;;;3.80;;
61471;SDS011;47337;54.068;12.114;2024-02-14T03:29:08;6.45;;;3.72;;
61471;SDS011;47337;54.068;12.114;2024-02-14T03:31:33;6.15;;;3.92;;
61471;SDS011;47337;54.068;12.114;2024-02-14T03:33:59;5.45;;;3.38;;
61471;SDS011;47337;54.068;12.114;2024-02-14T03:36:24;5.55;;;3.40;;
61471;SDS011;47337;54.068;12.114;2024-02-14T03:38:53;8.73;;;3.53;;
61471;SDS011;47337;54.068;12.114;2024-02-14T03:41:18;6.38;;;3.67;;
61471;SDS011;47337;54.068;12.114;2024-02-14T03:43:43;6.20;;;3.03;;
61471;SDS011;47337;54.068;12.114;2024-02-14T03:46:09;5.65;;;3.30;;
61471;SDS011;47337;54.068;12.114;2024-02-14T03:48:36;8.95;;;4.05;;
61471;SDS011;47337;54.068;12.114;2024-02-14T03:51:02;6.20;;;3.58;;
61471;SDS011;47337;54.068;12.114;2024-02-14T03:53:30;5.10;;;3.63;;
61471;SDS011;47337;54.068;12.114;2024-02-14T03:55:58;6.00;;;3.38;;
61471;SDS011;47337;54.068;12.114;2024-02-14T03:58:23;6.25;;;3.35;;
61471;SDS011;47337;54.068;12.114;2024-02-14T04:00:51;6.00;;;3.60;;
61471;SDS011;47337;54.068;12.114;2024-02-14T04:03:17;7.25;;;3.75;;
61471;SDS011;47337;54.068;12.114;2024-02-14T04:05:42;5.80;;;3.65;;
61471;SDS011;47337;54.068;12.114;2024-02-14T04:08:08;5.53;;;3.67;;
61471;SDS011;47337;54.068;12.114;2024-02-14T04:10:35;8.10;;;4.25;;
61471;SDS011;47337;54.068;12.114;2024-02-14T04:13:00;7.20;;;4.05;;
61471;SDS011;47337;54.068;12.114;2024-02-14T04:15:26;5.03;;;3.38;;
61471;SDS011;47337;54.068;12.114;2024-02-14T04:17:51;10.90;;;4.35;;
61471;SDS011;47337;54.068;12.114;2024-02-14T04:20:16;5.35;;;4.03;;
61471;SDS011;47337;54.068;12.114;2024-02-14T04:22:41;6.03;;;3.35;;
61471;SDS011;47337;54.068;12.114;2024-02-14T04:25:08;12.40;;;3.83;;
61471;SDS011;47337;54.068;12.114;2024-02-14T04:27:37;5.63;;;3.80;;
61471;SDS011;47337;54.068;12.114;2024-02-14T04:30:05;4.65;;;3.30;;
61471;SDS011;47337;54.068;12.114;2024-02-14T04:32:31;6.60;;;3.63;;
61471;SDS011;47337;54.068;12.114;2024-02-14T04:34:56;4.13;;;3.33;;
61471;SDS011;47337;54.068;12.114;2024-02-14T04:37:21;6.65;;;3.58;;
61471;SDS011;47337;54.068;12.114;2024-02-14T04:39:47;6.78;;;3.70;;
61471;SDS011;47337;54.068;12.114;2024-02-14T04:42:12;6.57;;;3.15;;
61471;SDS011;47337;54.068;12.114;2024-02-14T04:44:37;8.38;;;4.07;;
61471;SDS011;47337;54.068;12.114;2024-02-14T04:47:05;5.03;;;3.05;;
61471;SDS011;47337;54.068;12.114;2024-02-14T04:49:30;4.85;;;3.40;;
61471;SDS011;47337;54.068;12.114;2024-02-14T04:51:56;8.38;;;3.53;;
61471;SDS011;47337;54.068;12.114;2024-02-14T04:54:21;7.93;;;3.70;;
61471;SDS011;47337;54.068;12.114;2024-02-14T04:56:46;5.03;;;3.70;;
61471;SDS011;47337;54.068;12.114;2024-02-14T04:59:14;8.10;;;3.65;;
61471;SDS011;47337;54.068;12.114;2024-02-14T05:01:39;6.53;;;3.85;;
61471;SDS011;47337;54.068;12.114;2024-02-14T05:04:05;9.07;;;3.45;;
61471;SDS011;47337;54.068;12.114;2024-02-14T05:06:30;6.75;;;4.05;;
61471;SDS011;47337;54.068;12.114;2024-02-14T05:08:55;6.50;;;3.60;;
61471;SDS011;47337;54.068;12.114;2024-02-14T05:11:21;7.18;;;3.47;;
61471;SDS011;47337;54.068;12.114;2024-02-14T05:13:46;7.95;;;3.60;;
61471;SDS011;47337;54.068;12.114;2024-02-14T05:16:12;6.82;;;3.50;;
61471;SDS011;47337;54.068;12.114;2024-02-14T05:18:37;6.53;;;4.10;;
61471;SDS011;47337;54.068;12.114;2024-02-14T05:21:06;4.55;;;3.20;;
61471;SDS011;47337;54.068;12.114;2024-02-14T05:23:32;9.95;;;4.13;;
61471;SDS011;47337;54.068;12.114;2024-02-14T05:25:57;6.10;;;3.90;;
61471;SDS011;47337;54.068;12.114;2024-02-14T05:28:27;7.70;;;3.95;;
61471;SDS011;47337;54.068;12.114;2024-02-14T05:30:52;6.32;;;4.18;;
61471;SDS011;47337;54.068;12.114;2024-02-14T05:33:17;8.27;;;4.22;;
61471;SDS011;47337;54.068;12.114;2024-02-14T05:35:46;6.35;;;3.60;;
61471;SDS011;47337;54.068;12.114;2024-02-14T05:38:12;6.30;;;4.47;;
61471;SDS011;47337;54.068;12.114;2024-02-14T05:40:37;6.82;;;3.88;;
61471;SDS011;47337;54.068;12.114;2024-02-14T05:43:04;8.23;;;4.18;;
61471;SDS011;47337;54.068;12.114;2024-02-14T05:45:29;6.13;;;4.45;;
61471;SDS011;47337;54.068;12.114;2024-02-14T05:47:55;7.07;;;4.30;;
61471;SDS011;47337;54.068;12.114;2024-02-14T05:50:22;7.32;;;4.97;;
61471;SDS011;47337;54.068;12.114;2024-02-14T05:52:47;7.13;;;4.25;;
61471;SDS011;47337;54.068;12.114;2024-02-14T05:55:13;8.00;;;4.25;;
61471;SDS011;47337;54.068;12.114;2024-02-14T05:57:40;7.32;;;4.20;;
61471;SDS011;47337;54.068;12.114;2024-02-14T06:00:08;7.13;;;4.40;;
61471;SDS011;47337;54.068;12.114;2024-02-14T06:02:35;6.13;;;4.07;;
61471;SDS011;47337;54.068;12.114;2024-02-14T06:05:03;8.32;;;4.70;;
61471;SDS011;47337;54.068;12.114;2024-02-14T06:07:28;8.00;;;4.57;;
61471;SDS011;47337;54.068;12.114;2024-02-14T06:09:56;6.85;;;4.32;;
61471;SDS011;47337;54.068;12.114;2024-02-14T06:12:21;7.85;;;4.88;;
61471;SDS011;47337;54.068;12.114;2024-02-14T06:14:49;6.65;;;4.70;;
61471;SDS011;47337;54.068;12.114;2024-02-14T06:17:17;6.43;;;4.78;;
61471;SDS011;47337;54.068;12.114;2024-02-14T06:19:42;9.43;;;4.88;;
61471;SDS011;47337;54.068;12.114;2024-02-14T06:22:07;8.38;;;4.63;;
61471;SDS011;47337;54.068;12.114;2024-02-14T06:24:35;8.30;;;4.05;;
61471;SDS011;47337;54.068;12.114;2024-02-14T06:27:01;8.25;;;5.07;;
61471;SDS011;47337;54.068;12.114;2024-02-14T06:29:26;10.27;;;4.80;;
61471;SDS011;47337;54.068;12.114;2024-02-14T06:31:51;7.35;;;4.97;;
61471;SDS011;47337;54.068;12.114;2024-02-14T06:34:16;6.18;;;4.38;;
61471;SDS011;47337;54.068;12.114;2024-02-14T06:36:42;7.55;;;4.68;;
61471;SDS011;47337;54.068;12.114;2024-02-14T06:39:07;7.03;;;4.47;;
61471;SDS011;47337;54.068;12.114;2024-02-14T06:41:33;10.32;;;5.22;;
61471;SDS011;47337;54.068;12.114;2024-02-14T06:43:58;10.93;;;4.93;;
61471;SDS011;47337;54.068;12.114;2024-02-14T06:46:23;9.57;;;5.03;;
61471;SDS011;47337;54.068;12.114;2024-02-14T06:48:48;6.47;;;4.40;;
61471;SDS011;47337;54.068;12.114;2024-02-14T06:51:14;11.65;;;6.20;;
61471;SDS011;47337;54.068;12.114;2024-02-14T06:53:39;9.07;;;5.50;;
61471;SDS011;47337;54.068;12.114;2024-02-14T06:56:04;9.60;;;5.28;;
61471;SDS011;47337;54.068;12.114;2024-02-14T06:58:30;8.35;;;4.93;;
61471;SDS011;47337;54.068;12.114;2024-02-14T07:00:55;6.78;;;4.80;;
61471;SDS011;47337;54.068;12.114;2024-02-14T07:03:20;11.40;;;5.00;;
61471;SDS011;47337;54.068;12.114;2024-02-14T07:05:45;9.73;;;4.65;;
61471;SDS011;47337;54.068;12.114;2024-02-14T07:08:11;10.60;;;4.65;;
61471;SDS011;47337;54.068;12.114;2024-02-14T07:10:36;10.27;;;5.72;;
61471;SDS011;47337;54.068;12.114;2024-02-14T07:13:01;11.30;;;4.88;;
61471;SDS011;47337;54.068;12.114;2024-02-14T07:15:29;11.55;;;5.30;;
61471;SDS011;47337;54.068;12.114;2024-02-14T07:17:55;7.30;;;4.70;;
61471;SDS011;47337;54.068;12.114;2024-02-14T07:20:20;9.52;;;4.72;;
61471;SDS011;47337;54.068;12.114;2024-02-14T07:22:45;8.13;;;5.25;;
61471;SDS011;47337;54.068;12.114;2024-02-14T07:25:12;10.10;;;4.80;;
61471;SDS011;47337;54.068;12.114;2024-02-14T07:27:40;13.50;;;6.35;;
61471;SDS011;47337;54.068;12.114;2024-02-14T07:30:05;9.68;;;5.35;;
61471;SDS011;47337;54.068;12.114;2024-02-14T07:32:31;8.52;;;5.03;;
61471;SDS011;47337;54.068;12.114;2024-02-14T07:34:56;8.63;;;5.15;;
61471;SDS011;47337;54.068;12.114;2024-02-14T07:37:21;10.80;;;5.03;;
61471;SDS011;47337;54.068;12.114;2024-02-14T07:39:47;8.75;;;4.72;;
61471;SDS011;47337;54.068;12.114;2024-02-14T07:42:12;9.02;;;5.43;;
61471;SDS011;47337;54.068;12.114;2024-02-14T07:44:38;11.68;;;5.55;;
61471;SDS011;47337;54.068;12.114;2024-02-14T07:47:03;8.50;;;5.38;;
61471;SDS011;47337;54.068;12.114;2024-02-14T07:49:28;6.35;;;4.55;;
61471;SDS011;47337;54.068;12.114;2024-02-14T07:51:54;9.38;;;4.85;;
61471;SDS011;47337;54.068;12.114;2024-02-14T07:54:19;9.25;;;5.45;;
61471;SDS011;47337;54.068;12.114;2024-02-14T07:56:44;9.95;;;5.68;;
61471;SDS011;47337;54.068;12.114;2024-02-14T07:59:09;8.63;;;5.20;;
61471;SDS011;47337;54.068;12.114;2024-02-14T08:01:35;10.10;;;5.95;;
61471;SDS011;47337;54.068;12.114;2024-02-14T08:04:02;9.98;;;5.05;;
61471;SDS011;47337;54.068;12.114;2024-02-14T08:06:31;11.05;;;6.15;;
61471;SDS011;47337;54.068;12.114;2024-02-14T08:08:56;9.25;;;6.13;;
61471;SDS011;47337;54.068;12.114;2024-02-14T08:11:27;9.52;;;5.55;;
61471;SDS011;47337;54.068;12.114;2024-02-14T08:13:54;11.43;;;6.28;;
61471;SDS011;47337;54.068;12.114;2024-02-14T08:16:20;11.73;;;6.13;;
61471;SDS011;47337;54.068;12.114;2024-02-14T08:18:45;9.70;;;6.03;;
61471;SDS011;47337;54.068;12.114;2024-02-14T08:21:10;10.77;;;6.57;;
61471;SDS011;47337;54.068;12.114;2024-02-14T08:23:35;11.57;;;6.07;;
61471;SDS011;47337;54.068;12.114;2024-02-14T08:26:03;10.38;;;5.55;;
61471;SDS011;47337;54.068;12.114;2024-02-14T08:28:35;10.90;;;6.00;;
61471;SDS011;47337;54.068;12.114;2024-02-14T08:31:01;9.35;;;5.63;;
61471;SDS011;47337;54.068;12.114;2024-02-14T08:33:26;11.00;;;7.13;;
61471;SDS011;47337;54.068;12.114;2024-02-14T08:35:51;11.68;;;5.53;;
61471;SDS011;47337;54.068;12.114;2024-02-14T08:38:18;7.47;;;5.20;;
61471;SDS011;47337;54.068;12.114;2024-02-14T08:40:45;9.02;;;5.25;;
61471;SDS011;47337;54.068;12.114;2024-02-14T08:43:10;9.63;;;5.70;;
61471;SDS011;47337;54.068;12.114;2024-02-14T08:45:36;8.18;;;5.15;;
61471;SDS011;47337;54.068;12.114;2024-02-14T08:48:02;8.20;;;5.20;;
61471;SDS011;47337;54.068;12.114;2024-02-14T08:50:28;10.13;;;5.82;;
61471;SDS011;47337;54.068;12.114;2024-02-14T08:52:53;9.02;;;4.25;;
61471;SDS011;47337;54.068;12.114;2024-02-14T08:55:18;9.13;;;5.28;;
61471;SDS011;47337;54.068;12.114;2024-02-14T08:57:43;7.07;;;4.78;;
61471;SDS011;47337;54.068;12.114;2024-02-14T09:00:09;13.10;;;5.38;;
61471;SDS011;47337;54.068;12.114;2024-02-14T09:02:36;13.82;;;5.50;;
61471;SDS011;47337;54.068;12.114;2024-02-14T09:05:02;7.88;;;4.65;;
61471;SDS011;47337;54.068;12.114;2024-02-14T09:07:29;6.95;;;4.88;;
61471;SDS011;47337;54.068;12.114;2024-02-14T09:09:56;7.25;;;4.38;;
61471;SDS011;47337;54.068;12.114;2024-02-14T09:12:21;8.35;;;4.78;;
61471;SDS011;47337;54.068;12.114;2024-02-14T09:14:47;9.00;;;5.20;;
61471;SDS011;47337;54.068;12.114;2024-02-14T09:17:12;13.02;;;4.60;;
61471;SDS011;47337;54.068;12.114;2024-02-14T09:19:38;7.40;;;4.60;;
61471;SDS011;47337;54.068;12.114;2024-02-14T09:22:03;7.95;;;4.55;;
61471;SDS011;47337;54.068;12.114;2024-02-14T09:24:31;12.27;;;5.65;;
61471;SDS011;47337;54.068;12.114;2024-02-14T09:26:56;8.52;;;5.35;;
61471;SDS011;47337;54.068;12.114;2024-02-14T09:29:22;7.85;;;4.45;;
61471;SDS011;47337;54.068;12.114;2024-02-14T09:31:49;7.80;;;5.03;;
61471;SDS011;47337;54.068;12.114;2024-02-14T09:34:16;9.32;;;4.85;;
61471;SDS011;47337;54.068;12.114;2024-02-14T09:36:43;8.10;;;4.75;;
61471;SDS011;47337;54.068;12.114;2024-02-14T09:39:11;7.55;;;4.88;;
61471;SDS011;47337;54.068;12.114;2024-02-14T09:41:42;10.77;;;5.30;;
61471;SDS011;47337;54.068;12.114;2024-02-14T09:44:12;7.57;;;5.00;;
61471;SDS011;47337;54.068;12.114;2024-02-14T09:46:37;9.43;;;5.10;;
61471;SDS011;47337;54.068;12.114;2024-02-14T09:49:03;9.93;;;5.40;;
61471;SDS011;47337;54.068;12.114;2024-02-14T09:51:28;10.75;;;5.28;;
61471;SDS011;47337;54.068;12.114;2024-02-14T09:53:54;9.05;;;5.22;;
61471;SDS011;47337;54.068;12.114;2024-02-14T09:56:20;8.05;;;5.30;;
61471;SDS011;47337;54.068;12.114;2024-02-14T09:58:47;8.70;;;5.38;;
61471;SDS011;47337;54.068;12.114;2024-02-14T10:01:20;11.93;;;5.63;;
61471;SDS011;47337;54.068;12.114;2024-02-14T10:03:48;10.13;;;5.97;;
61471;SDS011;47337;54.068;12.114;2024-02-14T10:06:14;12.80;;;6.13;;
61471;SDS011;47337;54.068;12.114;2024-02-14T10:08:40;10.18;;;6.57;;
61471;SDS011;47337;54.068;12.114;2024-02-14T10:11:05;8.63;;;5.40;;
61471;SDS011;47337;54.068;12.114;2024-02-14T10:13:34;9.85;;;5.63;;
61471;SDS011;47337;54.068;12.114;2024-02-14T10:16:00;9.45;;;5.82;;
61471;SDS011;47337;54.068;12.114;2024-02-14T10:18:25;13.40;;;5.47;;
61471;SDS011;47337;54.068;12.114;2024-02-14T10:21:00;10.90;;;5.03;;
61471;SDS011;47337;54.068;12.114;2024-02-14T10:23:29;8.80;;;5.35;;
61471;SDS011;47337;54.068;12.114;2024-02-14T10:25:55;12.10;;;5.55;;
61471;SDS011;47337;54.068;12.114;2024-02-14T10:28:23;9.48;;;5.88;;
61471;SDS011;47337;54.068;12.114;2024-02-14T10:30:49;11.00;;;6.22;;
61471;SDS011;47337;54.068;12.114;2024-02-14T10:33:17;13.38;;;5.80;;
61471;SDS011;47337;54.068;12.114;2024-02-14T10:35:44;8.70;;;5.32;;
61471;SDS011;47337;54.068;12.114;2024-02-14T10:38:10;9.82;;;5.65;;
61471;SDS011;47337;54.068;12.114;2024-02-14T10:40:36;9.55;;;5.63;;
61471;SDS011;47337;54.068;12.114;2024-02-14T10:43:03;10.98;;;5.70;;
61471;SDS011;47337;54.068;12.114;2024-02-14T10:45:28;9.07;;;5.72;;
61471;SDS011;47337;54.068;12.114;2024-02-14T10:47:54;10.40;;;6.15;;
61471;SDS011;47337;54.068;12.114;2024-02-14T10:50:22;9.00;;;5.28;;
61471;SDS011;47337;54.068;12.114;2024-02-14T10:52:49;9.10;;;5.70;;
61471;SDS011;47337;54.068;12.114;2024-02-14T10:55:17;7.72;;;5.13;;
61471;SDS011;47337;54.068;12.114;2024-02-14T10:57:43;8.95;;;5.07;;
61471;SDS011;47337;54.068;12.114;2024-02-14T11:00:14;9.98;;;5.70;;
61471;SDS011;47337;54.068;12.114;2024-02-14T11:02:40;10.98;;;5.43;;
61471;SDS011;47337;54.068;12.114;2024-02-14T11:05:11;10.05;;;5.22;;
61471;SDS011;47337;54.068;12.114;2024-02-14T11:07:43;10.82;;;5.85;;
61471;SDS011;47337;54.068;12.114;2024-02-14T11:10:08;8.68;;;5.80;;
61471;SDS011;47337;54.068;12.114;2024-02-14T11:12:34;8.18;;;5.60;;
61471;SDS011;47337;54.068;12.114;2024-02-14T11:15:02;9.10;;;5.10;;
61471;SDS011;47337;54.068;12.114;2024-02-14T11:17:33;8.40;;;4.93;;
61471;SDS011;47337;54.068;12.114;2024-02-14T11:19:59;8.18;;;5.30;;
61471;SDS011;47337;54.068;12.114;2024-02-14T11:22:24;9.10;;;5.32;;
61471;SDS011;47337;54.068;12.114;2024-02-14T11:24:51;7.90;;;5.35;;
61471;SDS011;47337;54.068;12.114;2024-02-14T11:27:19;8.07;;;5.65;;
61471;SDS011;47337;54.068;12.114;2024-02-14T11:29:53;8.35;;;4.93;;
61471;SDS011;47337;54.068;12.114;2024-02-14T11:32:18;7.50;;;4.97;;
61471;SDS011;47337;54.068;12.114;2024-02-14T11:34:51;9.70;;;4.90;;
61471;SDS011;47337;54.068;12.114;2024-02-14T11:37:19;8.93;;;5.00;;
61471;SDS011;47337;54.068;12.114;2024-02-14T11:39:45;8.88;;;5.10;;
61471;SDS011;47337;54.068;12.114;2024-02-14T11:42:11;6.00;;;4.57;;
61471;SDS011;47337;54.068;12.114;2024-02-14T11:44:37;9.00;;;5.10;;
61471;SDS011;47337;54.068;12.114;2024-02-14T11:47:07;7.40;;;4.80;;
61471;SDS011;47337;54.068;12.114;2024-02-14T11:49:33;8.13;;;5.05;;
61471;SDS011;47337;54.068;12.114;2024-02-14T11:51:58;9.60;;;4.78;;
61471;SDS011;47337;54.068;12.114;2024-02-14T11:54:26;8.45;;;5.05;;
61471;SDS011;47337;54.068;12.114;2024-02-14T11:56:51;8.88;;;5.57;;
61471;SDS011;47337;54.068;12.114;2024-02-14T11:59:16;7.18;;;4.80;;
61471;SDS011;47337;54.068;12.114;2024-02-14T12:01:44;7.35;;;4.57;;
61471;SDS011;47337;54.068;12.114;2024-02-14T12:04:11;6.13;;;4.40;;
61471;SDS011;47337;54.068;12.114;2024-02-14T12:06:38;8.13;;;5.00;;
61471;SDS011;47337;54.068;12.114;2024-02-14T12:09:06;7.00;;;4.60;;
61471;SDS011;47337;54.068;12.114;2024-02-14T12:11:34;7.10;;;5.15;;
61471;SDS011;47337;54.068;12.114;2024-02-14T12:14:05;7.45;;;4.68;;
61471;SDS011;47337;54.068;12.114;2024-02-14T12:16:30;7.80;;;4.50;;
61471;SDS011;47337;54.068;12.114;2024-02-14T12:19:03;7.97;;;4.80;;
61471;SDS011;47337;54.068;12.114;2024-02-14T12:21:33;8.35;;;4.88;;
61471;SDS011;47337;54.068;12.114;2024-02-14T12:23:58;7.65;;;4.90;;
61471;SDS011;47337;54.068;12.114;2024-02-14T12:26:24;6.97;;;4.35;;
61471;SDS011;47337;54.068;12.114;2024-02-14T12:28:49;6.95;;;4.55;;
61471;SDS011;47337;54.068;12.114;2024-02-14T12:31:25;8.13;;;4.88;;
61471;SDS011;47337;54.068;12.114;2024-02-14T12:33:51;7.07;;;4.47;;
61471;SDS011;47337;54.068;12.114;2024-02-14T12:36:20;6.15;;;4.53;;
61471;SDS011;47337;54.068;12.114;2024-02-14T12:38:45;6.80;;;4.93;;
61471;SDS011;47337;54.068;12.114;2024-02-14T12:41:11;8.10;;;5.30;;
61471;SDS011;47337;54.068;12.114;2024-02-14T12:43:36;6.35;;;4.85;;
61471;SDS011;47337;54.068;12.114;2024-02-14T12:46:01;6.85;;;4.43;;
61471;SDS011;47337;54.068;12.114;2024-02-14T12:48:26;8.30;;;4.70;;
61471;SDS011;47337;54.068;12.114;2024-02-14T12:50:52;6.93;;;4.78;;
61471;SDS011;47337;54.068;12.114;2024-02-14T12:53:18;6.13;;;4.63;;
61471;SDS011;47337;54.068;12.114;2024-02-14T12:55:44;6.28;;;4.55;;
61471;SDS011;47337;54.068;12.114;2024-02-14T12:58:10;5.97;;;4.75;;
61471;SDS011;47337;54.068;12.114;2024-02-14T13:00:35;5.75;;;4.32;;
61471;SDS011;47337;54.068;12.114;2024-02-14T13:03:00;7.45;;;4.75;;
61471;SDS011;47337;54.068;12.114;2024-02-14T13:05:26;7.82;;;4.70;;
61471;SDS011;47337;54.068;12.114;2024-02-14T13:07:51;5.85;;;4.10;;
61471;SDS011;47337;54.068;12.114;2024-02-14T13:10:17;6.38;;;4.65;;
61471;SDS011;47337;54.068;12.114;2024-02-14T13:12:43;7.00;;;4.88;;
61471;SDS011;47337;54.068;12.114;2024-02-14T13:15:10;7.03;;;4.60;;
61471;SDS011;47337;54.068;12.114;2024-02-14T13:17:35;6.55;;;4.20;;
61471;SDS011;47337;54.068;12.114;2024-02-14T13:20:00;6.25;;;4.30;;
61471;SDS011;47337;54.068;12.114;2024-02-14T13:22:26;5.03;;;4.13;;
61471;SDS011;47337;54.068;12.114;2024-02-14T13:24:52;8.30;;;4.35;;
61471;SDS011;47337;54.068;12.114;2024-02-14T13:27:17;7.45;;;4.72;;
61471;SDS011;47337;54.068;12.114;2024-02-14T13:29:45;9.05;;;4.88;;
61471;SDS011;47337;54.068;12.114;2024-02-14T13:32:10;7.43;;;5.05;;
61471;SDS011;47337;54.068;12.114;2024-02-14T13:34:35;6.43;;;3.88;;
61471;SDS011;47337;54.068;12.114;2024-02-14T13:37:01;5.80;;;4.38;;
61471;SDS011;47337;54.068;12.114;2024-02-14T13:39:27;5.95;;;4.45;;
61471;SDS011;47337;54.068;12.114;2024-02-14T13:41:55;8.25;;;4.47;;
61471;SDS011;47337;54.068;12.114;2024-02-14T13:44:23;6.57;;;4.13;;
61471;SDS011;47337;54.068;12.114;2024-02-14T13:46:49;6.53;;;4.20;;
61471;SDS011;47337;54.068;12.114;2024-02-14T13:49:15;6.95;;;4.60;;
61471;SDS011;47337;54.068;12.114;2024-02-14T13:51:46;6.03;;;4.38;;
61471;SDS011;47337;54.068;12.114;2024-02-14T13:54:11;5.20;;;3.92;;
61471;SDS011;47337;54.068;12.114;2024-02-14T13:56:37;5.28;;;3.90;;
61471;SDS011;47337;54.068;12.114;2024-02-14T13:59:02;5.72;;;3.95;;
61471;SDS011;47337;54.068;12.114;2024-02-14T14:01:30;6.47;;;4.50;;
61471;SDS011;47337;54.068;12.114;2024-02-14T14:03:55;6.85;;;4.30;;
61471;SDS011;47337;54.068;12.114;2024-02-14T14:06:21;6.38;;;4.63;;
61471;SDS011;47337;54.068;12.114;2024-02-14T14:08:49;6.18;;;4.63;;
61471;SDS011;47337;54.068;12.114;2024-02-14T14:11:14;7.47;;;4.60;;
61471;SDS011;47337;54.068;12.114;2024-02-14T14:13:39;6.30;;;4.32;;
61471;SDS011;47337;54.068;12.114;2024-02-14T14:16:04;7.35;;;4.70;;
61471;SDS011;47337;54.068;12.114;2024-02-14T14:18:30;6.80;;;4.45;;
61471;SDS011;47337;54.068;12.114;2024-02-14T14:20:56;5.88;;;4.22;;
61471;SDS011;47337;54.068;12.114;2024-02-14T14:23:22;9.23;;;5.05;;
61471;SDS011;47337;54.068;12.114;2024-02-14T14:25:49;6.95;;;5.05;;